createdAt,value
2022-12-26T00:02:07.173Z,146028.81
2022-12-26T00:04:51.101Z,146015.41
2022-12-26T00:07:19.408Z,146016.63
2022-12-26T00:09:46.356Z,146042.19
2022-12-26T00:12:13.357Z,146054.38
2022-12-26T00:14:40.758Z,146059.22
2022-12-26T00:17:07.644Z,146066.50
2022-12-26T00:19:34.652Z,146060.44
2022-12-26T00:22:01.474Z,146053.13
2022-12-26T00:24:28.324Z,146056.78
2022-12-26T00:26:55.118Z,146025.16
2022-12-26T00:29:22.849Z,146047.06
2022-12-26T00:31:49.823Z,146047.06
2022-12-26T00:34:16.985Z,146044.66
2022-12-26T00:36:43.856Z,146051.91
2022-12-26T00:39:10.904Z,146057.97
2022-12-26T00:41:37.739Z,146044.66
2022-12-26T00:44:04.678Z,146078.72
2022-12-26T00:46:31.742Z,146071.38
2022-12-26T00:49:00.166Z,146049.50
2022-12-26T00:51:27.050Z,146082.38
2022-12-26T00:53:53.892Z,146075.03
2022-12-26T00:56:20.741Z,146078.72
2022-12-26T00:58:47.765Z,146073.81
2022-12-26T01:01:19.056Z,146056.78
2022-12-26T01:03:46.940Z,146032.47
2022-12-26T01:06:14.151Z,146039.75
2022-12-26T01:08:41.368Z,146032.47
2022-12-26T01:11:09.929Z,146047.06
2022-12-26T01:13:37.022Z,146059.22
2022-12-26T01:16:04.599Z,146057.97
2022-12-26T01:18:31.580Z,146054.38
2022-12-26T01:20:59.708Z,146061.63
2022-12-26T01:23:26.521Z,146078.72
2022-12-26T01:26:16.741Z,146068.97
2022-12-26T01:28:40.298Z,146061.63
2022-12-26T01:31:07.117Z,146049.50
2022-12-26T01:33:33.929Z,146054.38
2022-12-26T01:36:00.832Z,146066.50
2022-12-26T01:38:27.731Z,146066.50
2022-12-26T01:41:14.533Z,146068.97
2022-12-26T01:43:47.959Z,146059.22
2022-12-26T01:46:15.834Z,146066.50
2022-12-26T01:48:42.713Z,146050.72
2022-12-26T01:51:09.768Z,146067.75
2022-12-26T01:53:39.504Z,146065.31
2022-12-26T01:56:11.209Z,146054.38
2022-12-26T01:58:40.847Z,146043.41
2022-12-26T02:01:08.320Z,146023.94
2022-12-26T02:04:00.144Z,146071.38
2022-12-26T02:06:27.325Z,146076.28
2022-12-26T02:08:54.243Z,146076.28
2022-12-26T02:11:26.566Z,146081.19
2022-12-26T02:13:53.623Z,146076.28
2022-12-26T02:16:20.550Z,146061.63
2022-12-26T02:18:47.378Z,146053.13
2022-12-26T02:21:40.284Z,146051.91
2022-12-26T02:24:07.085Z,146032.47
2022-12-26T02:26:33.877Z,146066.50
2022-12-26T02:29:33.392Z,146056.78
2022-12-26T02:32:08.888Z,146072.63
2022-12-26T02:34:43.730Z,146068.97
2022-12-26T02:37:18.238Z,146087.25
2022-12-26T02:40:03.858Z,146079.94
2022-12-26T02:42:38.235Z,146079.94
2022-12-26T02:45:23.929Z,146088.47
2022-12-26T02:47:57.595Z,146081.19
2022-12-26T02:50:52.082Z,146061.63
2022-12-26T02:53:57.646Z,146047.06
2022-12-26T02:56:47.002Z,145986.25
2022-12-26T02:59:53.834Z,145961.91
2022-12-26T03:02:45.178Z,145971.66
2022-12-26T03:05:37.086Z,145980.13
2022-12-26T03:08:25.175Z,145969.22
2022-12-26T03:11:12.281Z,145952.19
2022-12-26T03:13:39.722Z,145947.31
2022-12-26T03:16:29.397Z,145936.38
2022-12-26T03:19:02.580Z,145935.19
2022-12-26T03:21:36.465Z,145949.78
2022-12-26T03:24:03.637Z,145937.59
2022-12-26T03:26:43.628Z,145908.44
2022-12-26T03:29:30.901Z,145891.38
2022-12-26T03:31:59.546Z,145920.56
2022-12-26T03:34:28.130Z,145903.56
2022-12-26T03:37:00.752Z,145901.09
2022-12-26T03:40:07.904Z,145920.56
2022-12-26T03:42:58.939Z,145913.28
2022-12-26T03:45:44.736Z,145888.94
2022-12-26T03:48:37.245Z,145919.34
2022-12-26T03:51:46.029Z,145888.94
2022-12-26T03:54:34.908Z,145884.06
2022-12-26T03:57:24.693Z,145867.09
2022-12-26T04:00:14.304Z,145857.31
2022-12-26T04:03:02.370Z,145876.81
2022-12-26T04:05:48.125Z,145858.56
2022-12-26T04:08:36.982Z,145897.44
2022-12-26T04:11:23.377Z,145912.03
2022-12-26T04:14:12.123Z,145912.03
2022-12-26T04:17:18.375Z,145921.81
2022-12-26T04:19:45.159Z,145901.09
2022-12-26T04:22:33.494Z,145905.97
2022-12-26T04:25:50.072Z,145901.09
2022-12-26T04:28:37.453Z,145891.38
2022-12-26T04:31:29.858Z,145901.09
2022-12-26T04:34:18.430Z,145914.50
2022-12-26T04:37:08.449Z,145893.78
2022-12-26T04:39:54.877Z,145920.56
2022-12-26T04:42:42.574Z,145923.00
2022-12-26T04:45:10.391Z,145910.84
2022-12-26T04:47:37.311Z,145932.72
2022-12-26T04:50:14.920Z,145913.28
2022-12-26T04:53:01.095Z,145867.09
2022-12-26T04:55:32.637Z,145862.22
2022-12-26T04:57:59.945Z,145867.09
2022-12-26T05:00:28.008Z,145857.31
2022-12-26T05:03:18.667Z,145876.81
2022-12-26T05:06:13.267Z,145884.06
2022-12-26T05:09:02.986Z,145863.44
2022-12-26T05:11:31.224Z,145854.91
2022-12-26T05:13:58.658Z,145881.66
2022-12-26T05:16:44.582Z,145865.84
2022-12-26T05:19:31.284Z,145885.31
2022-12-26T05:22:17.346Z,145888.94
2022-12-26T05:25:03.409Z,145898.69
2022-12-26T05:28:00.015Z,145881.66
2022-12-26T05:30:26.898Z,145870.69
2022-12-26T05:33:12.654Z,145850.06
2022-12-26T05:35:40.031Z,145842.75
2022-12-26T05:38:09.493Z,145825.75
2022-12-26T05:40:36.343Z,145799.00
2022-12-26T05:43:03.151Z,145794.16
2022-12-26T05:45:29.941Z,145783.19
2022-12-26T05:47:59.053Z,145774.66
2022-12-26T05:50:25.898Z,145774.66
2022-12-26T05:52:52.727Z,145784.38
2022-12-26T05:55:19.695Z,145781.97
2022-12-26T05:57:46.529Z,145799.00
2022-12-26T06:00:13.809Z,145786.84
2022-12-26T06:02:40.759Z,145781.97
2022-12-26T06:05:07.840Z,145768.59
2022-12-26T06:07:34.768Z,145763.75
2022-12-26T06:10:01.613Z,145781.97
2022-12-26T06:12:28.406Z,145781.97
2022-12-26T06:14:55.222Z,145767.41
2022-12-26T06:17:22.023Z,145823.31
2022-12-26T06:19:48.838Z,145823.31
2022-12-26T06:22:16.086Z,145808.72
2022-12-26T06:24:42.888Z,145811.13
2022-12-26T06:27:09.673Z,145789.28
2022-12-26T06:29:36.775Z,145789.28
2022-12-26T06:32:04.473Z,145808.72
2022-12-26T06:34:31.373Z,145799.00
2022-12-26T06:36:58.170Z,145799.00
2022-12-26T06:39:25.018Z,145808.72
2022-12-26T06:41:53.030Z,145786.84
2022-12-26T06:44:20.001Z,145772.25
2022-12-26T06:46:46.906Z,145757.69
2022-12-26T06:49:13.811Z,145743.06
2022-12-26T06:51:41.045Z,145756.44
2022-12-26T06:54:07.997Z,145752.81
2022-12-26T06:56:35.357Z,145779.53
2022-12-26T06:59:03.583Z,145797.75
2022-12-26T07:01:31.235Z,145778.31
2022-12-26T07:03:58.809Z,145781.97
2022-12-26T07:06:27.030Z,145762.53
2022-12-26T07:08:56.165Z,145767.41
2022-12-26T07:11:24.497Z,145799.00
2022-12-26T07:13:51.692Z,145670.09
2022-12-26T07:16:18.526Z,145570.50
2022-12-26T07:18:45.355Z,145512.19
2022-12-26T07:21:13.561Z,145500.03
2022-12-26T07:23:40.733Z,145490.34
2022-12-26T07:26:07.582Z,145508.56
2022-12-26T07:28:34.687Z,145468.47
2022-12-26T07:31:02.007Z,145486.69
2022-12-26T07:33:29.412Z,145509.75
2022-12-26T07:36:03.303Z,145503.69
2022-12-26T07:38:30.482Z,145492.78
2022-12-26T07:40:57.713Z,145478.16
2022-12-26T07:43:25.085Z,145466.06
2022-12-26T07:45:52.262Z,145478.16
2022-12-26T07:48:19.192Z,145521.91
2022-12-26T07:50:47.222Z,145500.03
2022-12-26T07:53:14.854Z,145487.88
2022-12-26T07:55:41.729Z,145496.41
2022-12-26T07:58:08.537Z,145450.25
2022-12-26T08:00:35.354Z,145453.91
2022-12-26T08:03:07.376Z,145473.31
2022-12-26T08:05:34.872Z,145490.34
2022-12-26T08:08:01.824Z,145486.69
2022-12-26T08:10:28.806Z,145466.06
2022-12-26T08:12:55.636Z,145464.81
2022-12-26T08:15:22.459Z,145466.06
2022-12-26T08:17:49.284Z,145470.91
2022-12-26T08:20:16.229Z,145497.63
2022-12-26T08:22:43.080Z,145487.88
2022-12-26T08:25:10.283Z,145527.97
2022-12-26T08:27:38.622Z,145543.78
2022-12-26T08:30:05.651Z,145524.31
2022-12-26T08:32:32.480Z,145549.84
2022-12-26T08:34:59.381Z,145517.06
2022-12-26T08:37:27.781Z,145534.06
2022-12-26T08:39:54.595Z,145538.94
2022-12-26T08:42:22.032Z,145548.66
2022-12-26T08:44:49.047Z,145564.41
2022-12-26T08:47:15.890Z,145548.66
2022-12-26T08:49:43.364Z,145558.34
2022-12-26T08:52:10.251Z,145558.34
2022-12-26T08:54:38.003Z,145570.50
2022-12-26T08:57:04.806Z,145456.34
2022-12-26T08:59:31.610Z,145588.75
2022-12-26T09:01:58.481Z,145558.34
2022-12-26T09:04:25.418Z,145575.38
2022-12-26T09:06:52.239Z,145594.78
2022-12-26T09:09:19.114Z,145592.34
2022-12-26T09:11:46.078Z,145546.19
2022-12-26T09:14:12.963Z,145551.06
2022-12-26T09:16:49.231Z,145553.50
2022-12-26T09:19:17.621Z,145569.28
2022-12-26T09:21:44.939Z,145549.84
2022-12-26T09:24:13.255Z,145602.09
2022-12-26T09:26:40.569Z,145582.63
2022-12-26T09:29:07.428Z,145568.06
2022-12-26T09:31:34.943Z,145580.22
2022-12-26T09:34:03.043Z,145606.97
2022-12-26T09:36:30.951Z,145604.50
2022-12-26T09:38:58.347Z,145600.84
2022-12-26T09:41:25.270Z,145622.72
2022-12-26T09:44:07.535Z,145628.78
2022-12-26T09:47:15.672Z,145621.53
2022-12-26T09:49:51.388Z,145632.44
2022-12-26T09:52:20.823Z,145654.31
2022-12-26T09:54:51.848Z,145656.78
2022-12-26T09:57:21.422Z,145670.09
2022-12-26T09:59:54.273Z,145681.06
2022-12-26T10:02:22.458Z,145684.72
2022-12-26T10:04:49.617Z,145740.66
2022-12-26T10:07:29.029Z,145739.44
2022-12-26T10:10:03.417Z,145721.22
2022-12-26T10:12:49.048Z,145735.78
2022-12-26T10:15:22.648Z,145696.84
2022-12-26T10:17:53.535Z,145653.13
2022-12-26T10:20:29.599Z,145673.75
2022-12-26T10:22:56.390Z,145668.91
2022-12-26T10:25:33.586Z,145650.66
2022-12-26T10:28:01.637Z,145715.13
2022-12-26T10:30:32.552Z,145694.44
2022-12-26T10:33:02.511Z,145755.22
2022-12-26T10:35:33.820Z,145767.41
2022-12-26T10:38:05.028Z,145768.59
2022-12-26T10:40:36.920Z,145816.00
2022-12-26T10:43:22.512Z,145845.19
2022-12-26T10:45:55.336Z,145847.59
2022-12-26T10:48:23.546Z,145852.47
2022-12-26T10:50:50.537Z,145837.88
2022-12-26T10:53:17.474Z,145837.88
2022-12-26T10:55:44.448Z,145816.00
2022-12-26T10:58:22.996Z,145852.47
2022-12-26T11:00:49.869Z,145857.31
2022-12-26T11:03:19.235Z,145901.09
2022-12-26T11:06:06.891Z,145852.47
2022-12-26T11:09:01.317Z,145857.31
2022-12-26T11:11:45.848Z,145863.44
2022-12-26T11:14:34.122Z,145903.56
2022-12-26T11:17:08.805Z,145899.91
2022-12-26T11:19:40.388Z,145890.19
2022-12-26T11:22:15.183Z,145923.00
2022-12-26T11:24:42.031Z,145913.28
2022-12-26T11:27:17.371Z,145925.41
2022-12-26T11:29:44.251Z,145946.09
2022-12-26T11:32:16.998Z,145927.88
2022-12-26T11:34:48.253Z,145935.19
2022-12-26T11:37:38.183Z,145937.59
2022-12-26T11:40:05.286Z,145942.44
2022-12-26T11:42:32.387Z,145942.44
2022-12-26T11:44:59.967Z,145947.31
2022-12-26T11:47:28.150Z,145940.03
2022-12-26T11:49:54.921Z,145923.00
2022-12-26T11:52:34.052Z,145932.72
2022-12-26T11:55:01.005Z,145946.09
2022-12-26T11:57:29.366Z,145927.88
2022-12-26T12:00:13.556Z,145907.19
2022-12-26T12:02:41.749Z,145893.78
2022-12-26T12:05:27.597Z,145862.22
2022-12-26T12:08:12.875Z,145860.97
2022-12-26T12:10:48.640Z,145854.91
2022-12-26T12:13:18.275Z,145867.09
2022-12-26T12:15:56.065Z,145846.41
2022-12-26T12:18:42.001Z,145836.69
2022-12-26T12:21:14.890Z,145859.78
2022-12-26T12:23:53.002Z,145874.34
2022-12-26T12:26:57.605Z,145847.59
2022-12-26T12:29:38.299Z,145816.00
2022-12-26T12:32:13.471Z,145830.63
2022-12-26T12:34:59.203Z,145829.38
2022-12-26T12:37:26.045Z,145816.00
2022-12-26T12:40:02.831Z,145801.41
2022-12-26T12:42:35.801Z,145796.56
2022-12-26T12:45:02.655Z,145816.00
2022-12-26T12:47:37.166Z,145796.56
2022-12-26T12:50:22.310Z,145789.28
2022-12-26T12:52:56.135Z,145799.00
2022-12-26T12:55:26.161Z,145830.63
2022-12-26T12:58:00.055Z,145858.56
2022-12-26T13:00:29.865Z,145862.22
2022-12-26T13:03:02.917Z,145853.72
2022-12-26T13:05:38.862Z,145857.31
2022-12-26T13:08:28.298Z,145830.63
2022-12-26T13:10:58.150Z,145850.06
2022-12-26T13:13:35.121Z,145852.47
2022-12-26T13:16:10.157Z,145854.91
2022-12-26T13:18:39.485Z,145836.69
2022-12-26T13:21:08.645Z,145884.06
2022-12-26T13:24:10.624Z,145910.84
2022-12-26T13:26:39.873Z,145905.97
2022-12-26T13:29:16.225Z,145888.94
2022-12-26T13:31:44.462Z,145884.06
2022-12-26T13:34:15.772Z,145875.56
2022-12-26T13:36:42.592Z,145871.94
2022-12-26T13:39:12.489Z,145908.44
2022-12-26T13:42:04.866Z,145920.56
2022-12-26T13:44:32.860Z,145903.56
2022-12-26T13:47:00.176Z,145859.78
2022-12-26T13:49:30.349Z,145857.31
2022-12-26T13:52:07.372Z,145856.13
2022-12-26T13:54:34.492Z,145873.16
2022-12-26T13:57:15.490Z,145858.56
2022-12-26T13:59:50.119Z,145870.69
2022-12-26T14:02:58.285Z,145869.50
2022-12-26T14:05:32.306Z,145816.00
2022-12-26T14:08:17.277Z,145799.00
2022-12-26T14:11:02.716Z,145716.38
2022-12-26T14:13:30.855Z,145653.13
2022-12-26T14:16:03.280Z,145615.44
2022-12-26T14:18:53.330Z,145621.53
2022-12-26T14:21:35.574Z,145645.81
2022-12-26T14:24:09.095Z,145626.38
2022-12-26T14:26:43.848Z,145628.78
2022-12-26T14:29:22.868Z,145631.25
2022-12-26T14:32:02.650Z,145645.81
2022-12-26T14:34:55.071Z,145599.66
2022-12-26T14:37:48.010Z,145603.31
2022-12-26T14:40:37.223Z,145594.78
2022-12-26T14:43:10.804Z,145638.56
2022-12-26T14:45:41.341Z,145585.09
2022-12-26T14:48:17.572Z,145625.19
2022-12-26T14:50:47.528Z,145623.94
2022-12-26T14:53:20.447Z,145631.25
2022-12-26T14:55:57.768Z,145585.09
2022-12-26T14:58:30.333Z,145434.47
2022-12-26T15:01:19.966Z,145348.28
2022-12-26T15:03:56.281Z,145242.66
2022-12-26T15:06:23.070Z,145225.66
2022-12-26T15:09:01.103Z,145219.59
2022-12-26T15:11:46.703Z,145208.66
2022-12-26T15:14:16.496Z,145189.25
2022-12-26T15:16:49.544Z,145231.69
2022-12-26T15:19:25.238Z,145179.53
2022-12-26T15:21:52.118Z,145200.16
2022-12-26T15:24:22.181Z,145228.06
2022-12-26T15:27:01.004Z,145208.66
2022-12-26T15:29:40.382Z,145225.66
2022-12-26T15:32:28.053Z,145217.16
2022-12-26T15:35:06.051Z,145230.50
2022-12-26T15:37:35.965Z,145264.50
2022-12-26T15:40:21.199Z,145257.25
2022-12-26T15:42:55.579Z,145230.50
2022-12-26T15:45:31.337Z,145242.66
2022-12-26T15:48:03.326Z,145223.19
2022-12-26T15:50:46.763Z,145264.50
2022-12-26T15:53:22.587Z,145262.09
2022-12-26T15:55:59.201Z,145237.81
2022-12-26T15:58:35.153Z,145223.19
2022-12-26T16:01:02.216Z,145281.50
2022-12-26T16:03:29.499Z,145259.66
2022-12-26T16:06:08.977Z,145249.91
2022-12-26T16:08:42.045Z,145270.59
2022-12-26T16:11:16.316Z,145259.66
2022-12-26T16:13:53.864Z,145169.84
2022-12-26T16:16:28.673Z,145292.47
2022-12-26T16:18:55.746Z,145307.00
2022-12-26T16:21:43.808Z,145271.81
2022-12-26T16:24:12.125Z,145291.22
2022-12-26T16:26:41.006Z,145262.09
2022-12-26T16:29:08.302Z,145286.34
2022-12-26T16:31:35.186Z,145259.66
2022-12-26T16:34:02.268Z,145206.25
2022-12-26T16:36:31.919Z,145206.25
2022-12-26T16:38:58.757Z,145198.94
2022-12-26T16:41:27.875Z,145156.50
2022-12-26T16:43:56.167Z,145162.53
2022-12-26T16:46:26.336Z,145127.34
2022-12-26T16:48:55.646Z,145145.56
2022-12-26T16:51:31.222Z,145124.94
2022-12-26T16:54:14.189Z,145101.91
2022-12-26T16:56:41.852Z,145132.19
2022-12-26T16:59:20.427Z,145092.22
2022-12-26T17:01:49.639Z,145092.22
2022-12-26T17:04:16.538Z,145067.91
2022-12-26T17:06:52.182Z,145066.72
2022-12-26T17:09:20.244Z,145067.91
2022-12-26T17:11:57.602Z,145070.38
2022-12-26T17:14:26.608Z,145043.69
2022-12-26T17:17:00.401Z,145038.81
2022-12-26T17:19:28.959Z,145093.41
2022-12-26T17:22:13.916Z,145029.13
2022-12-26T17:24:41.283Z,145029.13
2022-12-26T17:27:10.265Z,144970.91
2022-12-26T17:29:56.068Z,144967.28
2022-12-26T17:32:30.124Z,144966.06
2022-12-26T17:35:16.526Z,145023.03
2022-12-26T17:37:44.328Z,144963.63
2022-12-26T17:40:14.162Z,145019.44
2022-12-26T17:42:46.524Z,145004.84
2022-12-26T17:45:17.525Z,145017.00
2022-12-26T17:47:44.749Z,144970.91
2022-12-26T17:50:12.160Z,144967.28
2022-12-26T17:52:39.151Z,144959.97
2022-12-26T17:55:11.936Z,144992.75
2022-12-26T17:57:38.767Z,144966.06
2022-12-26T18:00:16.028Z,144961.22
2022-12-26T18:02:43.022Z,144924.84
2022-12-26T18:05:10.179Z,144905.41
2022-12-26T18:07:37.414Z,144920.00
2022-12-26T18:10:04.730Z,144910.31
2022-12-26T18:12:31.540Z,144934.53
2022-12-26T18:15:02.187Z,144932.09
2022-12-26T18:17:31.740Z,144926.03
2022-12-26T18:19:58.850Z,144843.63
2022-12-26T18:22:25.918Z,144910.31
2022-12-26T18:24:52.743Z,144930.91
2022-12-26T18:27:30.751Z,144949.09
2022-12-26T18:29:58.165Z,144953.94
2022-12-26T18:32:29.312Z,144959.97
2022-12-26T18:34:56.246Z,144951.53
2022-12-26T18:37:23.957Z,144940.59
2022-12-26T18:39:50.882Z,144936.94
2022-12-26T18:42:18.522Z,144871.50
2022-12-26T18:44:45.430Z,144915.16
2022-12-26T18:47:13.331Z,144900.56
2022-12-26T18:49:40.878Z,144898.16
2022-12-26T18:52:08.071Z,144896.97
2022-12-26T18:54:36.385Z,144889.69
2022-12-26T18:57:04.785Z,144928.50
2022-12-26T18:59:31.564Z,144883.63
2022-12-26T19:01:58.719Z,144924.84
2022-12-26T19:04:25.597Z,144900.56
2022-12-26T19:06:53.317Z,144830.28
2022-12-26T19:09:20.496Z,144832.69
2022-12-26T19:11:47.347Z,144783.03
2022-12-26T19:14:17.657Z,144764.88
2022-12-26T19:16:44.534Z,144755.13
2022-12-26T19:19:11.510Z,144759.97
2022-12-26T19:21:38.336Z,144761.22
2022-12-26T19:24:05.279Z,144710.34
2022-12-26T19:26:32.105Z,144677.59
2022-12-26T19:28:58.901Z,144636.38
2022-12-26T19:31:25.748Z,144580.66
2022-12-26T19:33:52.567Z,144567.34
2022-12-26T19:36:19.421Z,144566.13
2022-12-26T19:38:46.210Z,144511.66
2022-12-26T19:41:13.897Z,144499.53
2022-12-26T19:43:40.803Z,144457.16
2022-12-26T19:46:09.427Z,144426.91
2022-12-26T19:48:38.278Z,144449.88
2022-12-26T19:51:07.658Z,144430.53
2022-12-26T19:53:35.064Z,144401.50
2022-12-26T19:56:12.217Z,144416.00
2022-12-26T19:58:39.331Z,144366.38
2022-12-26T20:01:07.551Z,144326.44
2022-12-26T20:03:34.973Z,144326.44
2022-12-26T20:06:07.974Z,144292.59
2022-12-26T20:08:34.795Z,144325.25
2022-12-26T20:11:05.840Z,144319.16
2022-12-26T20:13:33.398Z,144326.44
2022-12-26T20:16:01.406Z,144287.75
2022-12-26T20:18:28.549Z,144256.28
2022-12-26T20:20:55.445Z,144212.72
2022-12-26T20:23:22.363Z,144200.63
2022-12-26T20:25:49.162Z,144215.16
2022-12-26T20:28:16.018Z,144244.19
2022-12-26T20:30:42.870Z,144215.16
2022-12-26T20:33:09.848Z,144221.19
2022-12-26T20:35:36.671Z,144227.22
2022-12-26T20:38:03.523Z,144198.22
2022-12-26T20:40:30.396Z,144203.06
2022-12-26T20:42:57.293Z,144149.81
2022-12-26T20:45:24.106Z,144180.06
2022-12-26T20:47:50.913Z,144140.16
2022-12-26T20:50:17.801Z,144157.09
2022-12-26T20:52:44.641Z,144128.03
2022-12-26T20:55:11.467Z,144126.84
2022-12-26T20:57:39.169Z,144084.53
2022-12-26T21:00:07.061Z,144099.03
2022-12-26T21:02:34.038Z,144125.66
2022-12-26T21:05:01.347Z,144123.22
2022-12-26T21:07:31.104Z,144125.66
2022-12-26T21:09:57.979Z,144099.03
2022-12-26T21:12:24.829Z,144114.75
2022-12-26T21:14:51.758Z,144109.91
2022-12-26T21:17:19.164Z,144062.78
2022-12-26T21:19:46.005Z,144067.59
2022-12-26T21:22:12.849Z,144057.94
2022-12-26T21:24:39.827Z,144060.34
2022-12-26T21:27:06.641Z,144096.59
2022-12-26T21:29:34.194Z,144048.28
2022-12-26T21:32:02.254Z,144019.22
2022-12-26T21:34:30.555Z,143990.25
2022-12-26T21:37:16.608Z,144038.59
2022-12-26T21:39:43.884Z,144043.44
2022-12-26T21:42:11.198Z,144031.34
2022-12-26T21:44:38.076Z,144026.50
2022-12-26T21:47:05.467Z,144065.16
2022-12-26T21:49:32.356Z,143990.25
2022-12-26T21:51:59.152Z,144072.44
2022-12-26T21:54:48.600Z,144118.38
2022-12-26T21:57:16.629Z,144051.91
2022-12-26T21:59:59.187Z,144066.41
2022-12-26T22:02:46.928Z,144070.03
2022-12-26T22:05:13.998Z,144042.19
2022-12-26T22:07:41.331Z,143981.78
2022-12-26T22:10:08.327Z,144016.84
2022-12-26T22:12:54.127Z,144014.41
2022-12-26T22:15:39.720Z,143990.25
2022-12-26T22:18:06.626Z,143998.69
2022-12-26T22:20:33.930Z,143981.78
2022-12-26T22:23:01.180Z,143975.75
2022-12-26T22:25:28.204Z,143964.84
2022-12-26T22:27:55.015Z,143932.22
2022-12-26T22:30:21.809Z,143946.69
2022-12-26T22:32:48.643Z,143927.38
2022-12-26T22:35:18.814Z,143915.28
2022-12-26T22:37:45.833Z,143931.00
2022-12-26T22:40:12.880Z,143895.97
2022-12-26T22:42:39.702Z,143900.78
2022-12-26T22:45:06.818Z,143898.41
2022-12-26T22:47:33.614Z,143908.06
2022-12-26T22:50:00.740Z,143956.38
2022-12-26T22:52:28.820Z,143922.56
2022-12-26T22:54:55.631Z,143920.13
2022-12-26T22:57:23.566Z,143910.44
2022-12-26T23:02:37.321Z,143847.63
2022-12-26T23:05:04.460Z,143847.63
2022-12-26T23:07:31.575Z,143883.84
2022-12-26T23:09:58.847Z,143883.84
2022-12-26T23:12:43.915Z,143866.97
2022-12-26T23:15:12.296Z,143859.72
2022-12-26T23:17:59.627Z,143837.94
2022-12-26T23:20:47.127Z,143828.28
2022-12-26T23:23:14.110Z,143828.28
2022-12-26T23:25:41.081Z,143822.28
2022-12-26T23:28:26.404Z,143835.56
2022-12-26T23:30:53.301Z,143818.63
2022-12-26T23:33:20.401Z,143837.94
2022-12-26T23:35:47.226Z,143817.44
2022-12-26T23:38:14.111Z,143837.94
2022-12-26T23:40:40.955Z,143856.06
2022-12-26T23:43:08.347Z,143844.03
2022-12-26T23:45:35.342Z,143815.00
2022-12-26T23:48:02.168Z,143850.03
2022-12-26T23:50:29.039Z,143808.97
2022-12-26T23:52:55.845Z,143839.19
2022-12-26T23:55:22.716Z,143823.47
2022-12-26T23:57:49.639Z,143840.38
